Time;durP1;ratioP1;P1;durP2;ratioP2;P2;SDS_P1;SDS_P2;PMS_P1;PMS_P2;Temp;Humidity;BMP_temperature;BMP_pressure;BME280_temperature;BME280_humidity;BME280_pressure;Samples;Min_cycle;Max_cycle;Signal;HPM_P1;HPM_P2
2023/04/28 20:24:25;;;;;;;1.50;1.40;;;14.90;85.40;;;;;;1973930;73;25527;-48
2023/04/28 20:26:54;;;;;;;5.08;1.60;;;14.90;85.80;;;;;;1949203;73;21474;-48
2023/04/28 20:29:24;;;;;;;2.08;1.62;;;14.90;85.90;;;;;;1949238;73;21140;-49
2023/04/28 20:31:53;;;;;;;4.58;1.77;;;14.90;86.10;;;;;;1949271;73;20983;-48
2023/04/28 20:34:21;;;;;;;6.80;1.70;;;14.90;86.30;;;;;;1949284;73;21426;-48
2023/04/28 20:36:51;;;;;;;3.47;1.60;;;14.90;86.40;;;;;;1949238;73;21080;-49
2023/04/28 20:39:21;;;;;;;2.50;1.37;;;14.90;86.40;;;;;;1949248;73;21076;-49
2023/04/28 20:41:50;;;;;;;4.47;1.62;;;14.90;86.40;;;;;;1949178;73;21064;-48
2023/04/28 20:44:19;;;;;;;4.22;1.32;;;14.90;86.60;;;;;;1949209;73;21027;-48
2023/04/28 20:46:48;;;;;;;2.92;1.77;;;14.90;86.60;;;;;;1949291;73;21433;-48
2023/04/28 20:49:18;;;;;;;3.30;1.82;;;14.90;86.70;;;;;;1949224;73;21023;-49
2023/04/28 20:51:46;;;;;;;3.47;1.52;;;14.90;86.70;;;;;;1949218;73;21156;-50
2023/04/28 20:54:16;;;;;;;2.87;1.50;;;14.90;86.80;;;;;;1949274;73;21123;-48
2023/04/28 20:56:45;;;;;;;2.30;1.40;;;14.90;86.70;;;;;;1949177;73;21096;-49
2023/04/28 20:59:14;;;;;;;3.00;1.42;;;14.90;86.60;;;;;;1949235;73;21116;-49
2023/04/28 21:01:43;;;;;;;3.87;1.65;;;14.90;86.50;;;;;;1949317;73;21003;-49
2023/04/28 21:04:12;;;;;;;3.25;1.42;;;14.90;86.50;;;;;;1949272;73;21080;-49
2023/04/28 21:06:41;;;;;;;2.25;1.40;;;14.90;86.50;;;;;;1949277;73;21160;-49
2023/04/28 21:09:12;;;;;;;3.37;1.20;;;14.90;86.70;;;;;;1949250;73;21496;-48
2023/04/28 21:11:42;;;;;;;2.30;1.30;;;14.90;86.70;;;;;;1949218;73;21015;-48
2023/04/28 21:14:14;;;;;;;3.75;1.45;;;14.90;86.60;;;;;;1949182;73;21043;-49
2023/04/28 21:16:46;;;;;;;4.92;1.60;;;14.90;86.50;;;;;;1949110;73;21015;-48
2023/04/28 21:19:12;;;;;;;1.98;1.20;;;14.90;86.60;;;;;;1947291;73;21106;-48
2023/04/28 21:21:41;;;;;;;3.50;1.57;;;14.90;87.10;;;;;;1949299;73;21072;-49
2023/04/28 21:24:11;;;;;;;4.03;1.60;;;14.90;86.50;;;;;;1949418;73;21172;-49
2023/04/28 21:26:41;;;;;;;3.75;1.70;;;14.90;86.50;;;;;;1949497;73;21003;-49
2023/04/28 21:29:10;;;;;;;4.47;1.72;;;14.90;86.70;;;;;;1949559;73;21076;-49
2023/04/28 21:31:39;;;;;;;2.87;1.37;;;15.00;86.70;;;;;;1949531;73;21100;-50
2023/04/28 21:34:08;;;;;;;2.08;1.27;;;15.00;86.70;;;;;;1949391;73;21035;-49
2023/04/28 21:36:37;;;;;;;1.80;1.50;;;15.00;86.70;;;;;;1948865;74;21023;-49
2023/04/28 21:39:06;;;;;;;3.05;1.40;;;15.00;86.80;;;;;;1948859;73;21517;-48
2023/04/28 21:41:36;;;;;;;3.35;1.40;;;15.00;86.90;;;;;;1948848;73;21003;-48
2023/04/28 21:44:05;;;;;;;3.52;2.25;;;15.00;86.90;;;;;;1949006;74;21018;-48
2023/04/28 21:46:34;;;;;;;2.45;1.45;;;15.00;86.80;;;;;;1948771;74;21004;-48
2023/04/28 21:49:03;;;;;;;2.87;1.90;;;15.00;86.80;;;;;;1948871;74;21073;-48
2023/04/28 21:51:33;;;;;;;2.20;1.42;;;15.10;86.80;;;;;;1948858;73;21084;-48
2023/04/28 21:54:02;;;;;;;2.87;1.10;;;15.00;86.70;;;;;;1948840;74;21014;-48
2023/04/28 21:56:31;;;;;;;3.77;1.05;;;15.00;86.50;;;;;;1948887;74;21022;-48
2023/04/28 21:59:01;;;;;;;2.20;1.52;;;14.90;86.50;;;;;;1948805;74;21046;-48
2023/04/28 22:01:30;;;;;;;4.20;1.60;;;14.90;86.60;;;;;;1948885;74;21031;-48
2023/04/28 22:04:02;;;;;;;3.40;1.40;;;14.90;86.80;;;;;;1948818;74;21108;-49
2023/04/28 22:06:31;;;;;;;5.28;2.00;;;14.90;87.40;;;;;;1948943;74;21124;-48
2023/04/28 22:09:01;;;;;;;3.40;1.30;;;14.90;86.90;;;;;;1948839;74;21113;-49
2023/04/28 22:11:30;;;;;;;2.17;1.80;;;14.90;87.00;;;;;;1948837;74;21018;-48
2023/04/28 22:13:59;;;;;;;1.60;1.10;;;14.90;87.00;;;;;;1948793;73;21076;-48
2023/04/28 22:16:28;;;;;;;4.03;1.40;;;14.90;86.80;;;;;;1948853;74;21007;-48
2023/04/28 22:18:57;;;;;;;2.72;1.55;;;14.90;86.70;;;;;;1948883;74;21077;-48
2023/04/28 22:21:27;;;;;;;2.58;1.72;;;14.90;86.80;;;;;;1948833;74;21097;-48
2023/04/28 22:23:56;;;;;;;5.40;1.75;;;14.90;86.90;;;;;;1947207;73;21055;-48
2023/04/28 22:26:33;;;;;;;2.12;1.35;;;14.90;87.00;;;;;;1943202;74;21007;-48
2023/04/28 22:29:02;;;;;;;2.77;1.40;;;14.90;87.00;;;;;;1943243;74;21069;-49
2023/04/28 22:31:31;;;;;;;3.98;1.30;;;14.90;86.90;;;;;;1943146;74;21076;-48
2023/04/28 22:34:00;;;;;;;3.40;1.75;;;14.90;86.80;;;;;;1943143;74;21003;-48
2023/04/28 22:36:31;;;;;;;2.50;1.60;;;14.90;86.70;;;;;;1943089;74;21047;-49
2023/04/28 22:39:00;;;;;;;4.17;1.60;;;14.90;86.70;;;;;;1943176;74;21055;-48
2023/04/28 22:41:29;;;;;;;4.50;1.87;;;14.80;86.60;;;;;;1943143;74;21097;-48
2023/04/28 22:43:59;;;;;;;3.05;1.60;;;14.80;86.80;;;;;;1943281;74;21104;-48
2023/04/28 22:46:28;;;;;;;3.72;1.95;;;14.70;86.80;;;;;;1943014;74;20983;-48
2023/04/28 22:48:57;;;;;;;3.35;1.47;;;14.70;86.90;;;;;;1943139;74;21160;-49
2023/04/28 22:51:27;;;;;;;2.67;1.75;;;14.70;86.90;;;;;;1943140;74;21011;-48
2023/04/28 22:53:56;;;;;;;5.22;1.57;;;14.70;87.10;;;;;;1943149;74;21160;-48
2023/04/28 22:56:25;;;;;;;3.37;2.40;;;14.70;87.20;;;;;;1943126;74;21078;-49
2023/04/28 22:58:55;;;;;;;3.30;1.50;;;14.80;87.20;;;;;;1943145;74;21063;-48
2023/04/28 23:01:24;;;;;;;3.90;2.22;;;14.80;87.10;;;;;;1943249;74;20983;-49
2023/04/28 23:03:53;;;;;;;3.37;1.50;;;14.80;87.10;;;;;;1943287;74;21027;-48
2023/04/28 23:06:22;;;;;;;4.75;1.57;;;14.80;87.20;;;;;;1943263;74;21150;-48
2023/04/28 23:08:51;;;;;;;2.75;1.40;;;14.80;87.10;;;;;;1943098;74;21168;-48
2023/04/28 23:11:23;;;;;;;1.65;1.45;;;14.80;87.00;;;;;;1943204;74;20999;-48
2023/04/28 23:13:51;;;;;;;2.00;1.42;;;14.70;87.00;;;;;;1943151;74;21094;-48
2023/04/28 23:16:20;;;;;;;3.12;1.60;;;14.70;87.00;;;;;;1943125;74;21177;-49
2023/04/28 23:18:50;;;;;;;2.62;1.25;;;14.70;87.20;;;;;;1943281;74;21147;-49
2023/04/28 23:21:19;;;;;;;3.33;1.37;;;14.70;87.20;;;;;;1943119;74;21063;-48
2023/04/28 23:23:49;;;;;;;4.67;1.52;;;14.70;87.20;;;;;;1943184;74;21136;-49
2023/04/28 23:26:19;;;;;;;4.35;1.42;;;14.70;87.20;;;;;;1935657;73;21042;-48
2023/04/28 23:28:48;;;;;;;13.72;1.75;;;14.60;87.20;;;;;;1935658;74;21003;-49
2023/04/28 23:31:17;;;;;;;3.10;1.50;;;14.60;87.50;;;;;;1935603;74;21705;-48
2023/04/28 23:33:47;;;;;;;4.30;1.57;;;14.60;87.40;;;;;;1935612;74;21188;-49
2023/04/28 23:36:16;;;;;;;4.03;1.60;;;14.60;87.50;;;;;;1935647;74;21043;-48
2023/04/28 23:38:45;;;;;;;3.00;1.95;;;14.60;87.60;;;;;;1935737;74;21161;-48
2023/04/28 23:41:14;;;;;;;4.78;1.40;;;14.50;87.70;;;;;;1935621;74;21109;-48
2023/04/28 23:43:44;;;;;;;1.45;1.35;;;14.60;87.80;;;;;;1935659;74;20983;-48
2023/04/28 23:46:13;;;;;;;2.62;1.67;;;14.60;87.80;;;;;;1935728;74;20988;-48
2023/04/28 23:48:42;;;;;;;2.77;1.65;;;14.60;87.90;;;;;;1935688;74;21079;-49
2023/04/28 23:51:11;;;;;;;4.25;1.87;;;14.70;88.10;;;;;;1935609;74;21188;-49
2023/04/28 23:53:40;;;;;;;3.87;1.82;;;14.70;88.00;;;;;;1935640;74;21147;-48
2023/04/28 23:56:10;;;;;;;5.72;1.80;;;14.70;88.10;;;;;;1935636;74;21108;-48
2023/04/28 23:58:39;;;;;;;3.33;1.87;;;14.70;88.10;;;;;;1935601;74;21128;-48
